Weather at Pine Bottom Heliport

Public forecast

Using degrees Fahrenheit for public forecast. Weather courtesy of forecast.io.

Closest aviation weather report (METAR) to Pine Bottom Heliport

Closest report is Altoona Blair County Airport, 3.7 nm (6.8 km) N. Retrieved 2021/01/28 03:53 UTC (24 minutes ago):

KAOO 280353Z AUTO 33008KT 10SM OVC026 M03/M09 A3013 RMK AO2 SLP222 T10331094

Closest aviation forecast (TAF) to Pine Bottom Heliport

Closest forecast is Altoona Blair County Airport, 3.7 nm (6.8 km) N. Retrieved 2021-01-28 00:42 UTC (4 hours ago):

TAF KAOO 272339Z 2800/2824 33008KT P6SM BKN025 FM280100 34008KT P6SM SCT025 OVC120 FM281500 32016G26KT P6SM SCT040